sensor_id;sensor_type;location;lat;lon;timestamp;pressure;altitude;pressure_sealevel;temperature;humidity
7018;BME280;3549;42.162;24.726;2023-09-19T00:00:21;47507.53;;;-141.97;65.31
7018;BME280;3549;42.162;24.726;2023-09-19T00:02:54;47634.41;;;-141.97;64.61
7018;BME280;3549;42.162;24.726;2023-09-19T00:05:29;47471.03;;;-141.97;64.94
7018;BME280;3549;42.162;24.726;2023-09-19T00:07:58;47467.19;;;-141.97;64.06
7018;BME280;3549;42.162;24.726;2023-09-19T00:10:30;47472.94;;;-141.97;63.73
7018;BME280;3549;42.162;24.726;2023-09-19T00:13:03;47515.22;;;-141.97;64.27
7018;BME280;3549;42.162;24.726;2023-09-19T00:15:40;47536.38;;;-141.97;64.00
7018;BME280;3549;42.162;24.726;2023-09-19T00:18:07;47524.84;;;-141.97;63.78
7018;BME280;3549;42.162;24.726;2023-09-19T00:20:35;47522.91;;;-141.97;63.96
7018;BME280;3549;42.162;24.726;2023-09-19T00:23:01;47398.00;;;-141.97;63.91
7018;BME280;3549;42.162;24.726;2023-09-19T00:25:35;47732.44;;;-141.97;63.65
7018;BME280;3549;42.162;24.726;2023-09-19T00:28:01;47657.47;;;-141.97;63.26
7018;BME280;3549;42.162;24.726;2023-09-19T00:30:26;47499.84;;;-141.97;63.85
7018;BME280;3549;42.162;24.726;2023-09-19T00:32:52;47607.50;;;-141.97;63.86
7018;BME280;3549;42.162;24.726;2023-09-19T00:35:18;47546.00;;;-141.97;63.70
7018;BME280;3549;42.162;24.726;2023-09-19T00:37:49;47547.91;;;-141.97;63.76
7018;BME280;3549;42.162;24.726;2023-09-19T00:40:14;47676.69;;;-141.97;63.54
7018;BME280;3549;42.162;24.726;2023-09-19T00:42:43;47565.22;;;-141.97;63.73
7018;BME280;3549;42.162;24.726;2023-09-19T00:45:10;47705.53;;;-141.97;63.95
7018;BME280;3549;42.162;24.726;2023-09-19T00:47:38;47517.16;;;-141.97;63.82
7018;BME280;3549;42.162;24.726;2023-09-19T00:50:05;47615.19;;;-141.97;63.65
7018;BME280;3549;42.162;24.726;2023-09-19T00:52:36;47634.41;;;-141.97;64.31
7018;BME280;3549;42.162;24.726;2023-09-19T00:55:08;47497.94;;;-141.97;64.44
7018;BME280;3549;42.162;24.726;2023-09-19T00:57:34;47492.16;;;-141.97;65.29
7018;BME280;3549;42.162;24.726;2023-09-19T01:00:01;47511.38;;;-141.97;65.91
7018;BME280;3549;42.162;24.726;2023-09-19T01:02:31;47536.38;;;-141.97;67.06
7018;BME280;3549;42.162;24.726;2023-09-19T01:04:57;47517.16;;;-141.97;67.42
7018;BME280;3549;42.162;24.726;2023-09-19T01:07:23;47522.91;;;-141.97;67.99
7018;BME280;3549;42.162;24.726;2023-09-19T01:09:49;47686.31;;;-141.97;67.64
7018;BME280;3549;42.162;24.726;2023-09-19T01:12:19;47630.56;;;-141.97;67.81
7018;BME280;3549;42.162;24.726;2023-09-19T01:14:59;47521.00;;;-141.97;67.64
7018;BME280;3549;42.162;24.726;2023-09-19T01:17:34;47565.22;;;-141.97;67.41
7018;BME280;3549;42.162;24.726;2023-09-19T01:20:07;47565.22;;;-141.97;67.21
7018;BME280;3549;42.162;24.726;2023-09-19T01:31:19;47521.00;;;-141.97;67.89
7018;BME280;3549;42.162;24.726;2023-09-19T01:34:03;47569.06;;;-141.97;68.82
7018;BME280;3549;42.162;24.726;2023-09-19T01:36:34;47549.84;;;-141.97;69.79
7018;BME280;3549;42.162;24.726;2023-09-19T01:39:04;47565.22;;;-141.97;70.44
7018;BME280;3549;42.162;24.726;2023-09-19T01:42:04;47530.59;;;-141.97;71.84
7018;BME280;3549;42.162;24.726;2023-09-19T01:47:19;47505.63;;;-141.97;72.42
7018;BME280;3549;42.162;24.726;2023-09-19T01:52:54;47515.22;;;-141.97;71.71
7018;BME280;3549;42.162;24.726;2023-09-19T01:55:23;47492.16;;;-141.97;71.66
7018;BME280;3549;42.162;24.726;2023-09-19T01:58:04;47718.97;;;-141.97;70.65
7018;BME280;3549;42.162;24.726;2023-09-19T02:00:34;47538.28;;;-141.97;70.19
7018;BME280;3549;42.162;24.726;2023-09-19T02:03:02;47538.28;;;-141.97;69.92
7018;BME280;3549;42.162;24.726;2023-09-19T02:05:28;47511.38;;;-141.97;70.30
7018;BME280;3549;42.162;24.726;2023-09-19T02:07:54;47553.69;;;-141.97;70.58
7018;BME280;3549;42.162;24.726;2023-09-19T02:10:21;47718.97;;;-141.97;70.57
7018;BME280;3549;42.162;24.726;2023-09-19T02:12:46;47530.59;;;-141.97;70.58
7018;BME280;3549;42.162;24.726;2023-09-19T02:15:12;47561.38;;;-141.97;70.50
7018;BME280;3549;42.162;24.726;2023-09-19T02:17:37;47538.28;;;-141.97;70.51
7018;BME280;3549;42.162;24.726;2023-09-19T02:20:03;47482.56;;;-141.97;70.78
7018;BME280;3549;42.162;24.726;2023-09-19T02:22:36;47530.59;;;-141.97;70.48
7018;BME280;3549;42.162;24.726;2023-09-19T02:25:01;47613.25;;;-141.97;70.33
7018;BME280;3549;42.162;24.726;2023-09-19T02:27:30;47530.59;;;-141.97;69.96
7018;BME280;3549;42.162;24.726;2023-09-19T02:29:56;47551.75;;;-141.97;69.41
7018;BME280;3549;42.162;24.726;2023-09-19T02:32:21;47538.28;;;-141.97;69.68
7018;BME280;3549;42.162;24.726;2023-09-19T02:34:48;47617.09;;;-141.97;69.15
7018;BME280;3549;42.162;24.726;2023-09-19T02:37:14;47532.53;;;-141.97;68.58
7018;BME280;3549;42.162;24.726;2023-09-19T02:39:41;47688.22;;;-141.97;68.62
7018;BME280;3549;42.162;24.726;2023-09-19T02:42:07;47636.31;;;-141.97;67.87
7018;BME280;3549;42.162;24.726;2023-09-19T02:44:32;47522.91;;;-141.97;68.00
7018;BME280;3549;42.162;24.726;2023-09-19T02:46:59;47765.09;;;-141.97;68.64
7018;BME280;3549;42.162;24.726;2023-09-19T02:49:24;47534.44;;;-141.97;68.66
7018;BME280;3549;42.162;24.726;2023-09-19T02:51:50;47659.38;;;-141.97;69.45
7018;BME280;3549;42.162;24.726;2023-09-19T02:54:16;47542.16;;;-141.97;70.47
7018;BME280;3549;42.162;24.726;2023-09-19T02:56:43;47574.81;;;-141.97;70.70
7018;BME280;3549;42.162;24.726;2023-09-19T02:59:08;47432.59;;;-141.97;70.88
7018;BME280;3549;42.162;24.726;2023-09-19T03:01:35;47551.75;;;-141.97;71.35
7018;BME280;3549;42.162;24.726;2023-09-19T03:04:02;47553.69;;;-141.97;71.76
7018;BME280;3549;42.162;24.726;2023-09-19T03:06:28;47569.06;;;-141.97;72.40
7018;BME280;3549;42.162;24.726;2023-09-19T03:08:56;47526.75;;;-141.97;71.96
7018;BME280;3549;42.162;24.726;2023-09-19T03:11:21;47684.38;;;-141.97;72.31
7018;BME280;3549;42.162;24.726;2023-09-19T03:13:54;47536.38;;;-141.97;73.15
7018;BME280;3549;42.162;24.726;2023-09-19T03:16:20;47692.06;;;-141.97;72.42
7018;BME280;3549;42.162;24.726;2023-09-19T03:18:47;47724.75;;;-141.97;72.46
7018;BME280;3549;42.162;24.726;2023-09-19T03:21:14;47459.50;;;-141.97;72.79
7018;BME280;3549;42.162;24.726;2023-09-19T03:23:39;47526.75;;;-141.97;72.88
7018;BME280;3549;42.162;24.726;2023-09-19T03:26:06;47492.16;;;-141.97;73.68
7018;BME280;3549;42.162;24.726;2023-09-19T03:28:33;47515.22;;;-141.97;73.46
7018;BME280;3549;42.162;24.726;2023-09-19T03:31:03;47574.81;;;-141.97;73.14
7018;BME280;3549;42.162;24.726;2023-09-19T03:33:29;47530.59;;;-141.97;73.23
7018;BME280;3549;42.162;24.726;2023-09-19T03:35:57;47496.00;;;-141.97;73.27
7018;BME280;3549;42.162;24.726;2023-09-19T03:38:24;47505.63;;;-141.97;72.35
7018;BME280;3549;42.162;24.726;2023-09-19T03:40:50;47524.84;;;-141.97;71.93
7018;BME280;3549;42.162;24.726;2023-09-19T03:43:15;47686.31;;;-141.97;71.60
7018;BME280;3549;42.162;24.726;2023-09-19T03:45:41;47553.69;;;-141.97;72.24
7018;BME280;3549;42.162;24.726;2023-09-19T03:48:09;47434.50;;;-141.97;72.84
7018;BME280;3549;42.162;24.726;2023-09-19T03:50:35;47546.00;;;-141.97;72.91
7018;BME280;3549;42.162;24.726;2023-09-19T03:53:00;47557.53;;;-141.97;73.07
7018;BME280;3549;42.162;24.726;2023-09-19T03:55:26;47538.28;;;-141.97;73.28
7018;BME280;3549;42.162;24.726;2023-09-19T03:57:52;47584.44;;;-141.97;73.40
7018;BME280;3549;42.162;24.726;2023-09-19T04:00:18;47530.59;;;-141.97;74.00
7018;BME280;3549;42.162;24.726;2023-09-19T04:02:46;47590.19;;;-141.97;74.32
7018;BME280;3549;42.162;24.726;2023-09-19T04:05:11;47496.00;;;-141.97;74.22
7018;BME280;3549;42.162;24.726;2023-09-19T04:07:37;47549.84;;;-141.97;74.35
7018;BME280;3549;42.162;24.726;2023-09-19T04:10:03;47522.91;;;-141.97;74.31
7018;BME280;3549;42.162;24.726;2023-09-19T04:12:28;47519.06;;;-141.97;74.48
7018;BME280;3549;42.162;24.726;2023-09-19T04:14:53;47697.84;;;-141.97;74.43
7018;BME280;3549;42.162;24.726;2023-09-19T04:17:19;47557.53;;;-141.97;74.36
7018;BME280;3549;42.162;24.726;2023-09-19T04:19:45;47434.50;;;-141.97;74.24
7018;BME280;3549;42.162;24.726;2023-09-19T04:22:11;47542.16;;;-141.97;74.07
7018;BME280;3549;42.162;24.726;2023-09-19T04:24:38;47549.84;;;-141.97;73.70
7018;BME280;3549;42.162;24.726;2023-09-19T04:27:04;47544.06;;;-141.97;73.33
7018;BME280;3549;42.162;24.726;2023-09-19T04:29:29;47557.53;;;-141.97;72.75
7018;BME280;3549;42.162;24.726;2023-09-19T04:31:55;47522.91;;;-141.97;72.85
7018;BME280;3549;42.162;24.726;2023-09-19T04:34:22;47538.28;;;-141.97;72.47
7018;BME280;3549;42.162;24.726;2023-09-19T04:36:49;47638.25;;;-141.97;73.07
7018;BME280;3549;42.162;24.726;2023-09-19T04:39:14;47503.69;;;-141.97;73.42
7018;BME280;3549;42.162;24.726;2023-09-19T04:41:39;47521.00;;;-141.97;73.08
7018;BME280;3549;42.162;24.726;2023-09-19T04:44:06;47576.75;;;-141.97;72.58
7018;BME280;3549;42.162;24.726;2023-09-19T04:46:33;47594.03;;;-141.97;72.27
7018;BME280;3549;42.162;24.726;2023-09-19T04:48:58;47530.59;;;-141.97;71.74
7018;BME280;3549;42.162;24.726;2023-09-19T04:51:24;47578.66;;;-141.97;71.42
7018;BME280;3549;42.162;24.726;2023-09-19T04:53:50;47526.75;;;-141.97;71.41
7018;BME280;3549;42.162;24.726;2023-09-19T04:56:16;47430.66;;;-141.97;71.02
7018;BME280;3549;42.162;24.726;2023-09-19T04:58:41;47569.06;;;-141.97;70.86
7018;BME280;3549;42.162;24.726;2023-09-19T05:01:07;47682.47;;;-141.97;70.48
7018;BME280;3549;42.162;24.726;2023-09-19T05:03:36;47526.75;;;-141.97;70.09
7018;BME280;3549;42.162;24.726;2023-09-19T05:06:02;47553.69;;;-141.97;69.57
7018;BME280;3549;42.162;24.726;2023-09-19T05:08:28;47695.91;;;-141.97;69.67
7018;BME280;3549;42.162;24.726;2023-09-19T05:10:53;47542.16;;;-141.97;69.23
7018;BME280;3549;42.162;24.726;2023-09-19T05:13:21;47590.19;;;-141.97;68.88
7018;BME280;3549;42.162;24.726;2023-09-19T05:15:48;47557.53;;;-141.97;68.99
7018;BME280;3549;42.162;24.726;2023-09-19T05:18:15;47570.97;;;-141.97;69.24
7018;BME280;3549;42.162;24.726;2023-09-19T05:20:40;47522.91;;;-141.97;69.96
7018;BME280;3549;42.162;24.726;2023-09-19T05:23:06;47436.44;;;-141.97;69.92
7018;BME280;3549;42.162;24.726;2023-09-19T05:25:37;47580.59;;;-141.97;70.21
7018;BME280;3549;42.162;24.726;2023-09-19T05:28:08;47549.84;;;-141.97;69.84
7018;BME280;3549;42.162;24.726;2023-09-19T05:30:34;47567.13;;;-141.97;69.75
7018;BME280;3549;42.162;24.726;2023-09-19T05:33:01;47513.31;;;-141.97;71.76
7018;BME280;3549;42.162;24.726;2023-09-19T05:35:27;47509.47;;;-141.97;71.02
7018;BME280;3549;42.162;24.726;2023-09-19T05:37:53;47538.28;;;-141.97;71.40
7018;BME280;3549;42.162;24.726;2023-09-19T05:40:20;47530.59;;;-141.97;71.28
7018;BME280;3549;42.162;24.726;2023-09-19T05:42:47;47576.75;;;-141.97;71.35
7018;BME280;3549;42.162;24.726;2023-09-19T05:45:13;47544.06;;;-141.97;71.02
7018;BME280;3549;42.162;24.726;2023-09-19T05:47:40;47547.91;;;-141.97;71.97
7018;BME280;3549;42.162;24.726;2023-09-19T05:50:11;47551.75;;;-141.97;71.33
7018;BME280;3549;42.162;24.726;2023-09-19T05:52:37;47461.41;;;-141.97;72.39
7018;BME280;3549;42.162;24.726;2023-09-19T05:55:06;47553.69;;;-141.97;72.52
7018;BME280;3549;42.162;24.726;2023-09-19T05:57:33;47544.06;;;-141.97;72.40
7018;BME280;3549;42.162;24.726;2023-09-19T05:59:59;47551.75;;;-141.97;71.69
7018;BME280;3549;42.162;24.726;2023-09-19T06:02:24;47563.28;;;-141.97;70.52
7018;BME280;3549;42.162;24.726;2023-09-19T06:04:54;47569.06;;;-141.97;69.36
7018;BME280;3549;42.162;24.726;2023-09-19T06:07:21;47530.59;;;-141.97;68.81
7018;BME280;3549;42.162;24.726;2023-09-19T06:09:47;47559.44;;;-141.97;68.34
7018;BME280;3549;42.162;24.726;2023-09-19T06:12:12;47536.38;;;-141.97;68.51
7018;BME280;3549;42.162;24.726;2023-09-19T06:14:42;47496.00;;;-141.97;69.02
7018;BME280;3549;42.162;24.726;2023-09-19T06:17:08;47569.06;;;-141.97;68.48
7018;BME280;3549;42.162;24.726;2023-09-19T06:19:34;47576.75;;;-141.97;68.11
7018;BME280;3549;42.162;24.726;2023-09-19T06:21:59;47530.59;;;-141.97;67.87
7018;BME280;3549;42.162;24.726;2023-09-19T06:24:25;47530.59;;;-141.97;67.03
7018;BME280;3549;42.162;24.726;2023-09-19T06:26:51;47595.97;;;-141.97;66.51
7018;BME280;3549;42.162;24.726;2023-09-19T06:29:18;47557.53;;;-141.97;66.39
7018;BME280;3549;42.162;24.726;2023-09-19T06:31:43;47557.53;;;-141.97;65.93
7018;BME280;3549;42.162;24.726;2023-09-19T06:34:10;47522.91;;;-141.97;65.33
7018;BME280;3549;42.162;24.726;2023-09-19T06:36:35;47576.75;;;-141.97;64.86
7018;BME280;3549;42.162;24.726;2023-09-19T06:39:01;47538.28;;;-141.97;64.27
7018;BME280;3549;42.162;24.726;2023-09-19T06:41:26;47544.06;;;-141.97;63.96
7018;BME280;3549;42.162;24.726;2023-09-19T06:43:51;47567.13;;;-141.97;65.14
7018;BME280;3549;42.162;24.726;2023-09-19T06:46:20;47536.38;;;-141.97;63.91
7018;BME280;3549;42.162;24.726;2023-09-19T06:48:45;47530.59;;;-141.97;62.92
7018;BME280;3549;42.162;24.726;2023-09-19T06:51:13;47530.59;;;-141.97;62.06
7018;BME280;3549;42.162;24.726;2023-09-19T06:53:41;47524.84;;;-141.97;61.41
7018;BME280;3549;42.162;24.726;2023-09-19T06:56:06;47497.94;;;-141.97;61.14
7018;BME280;3549;42.162;24.726;2023-09-19T06:58:32;47549.84;;;-141.97;61.38
7018;BME280;3549;42.162;24.726;2023-09-19T07:00:57;47515.22;;;-141.97;60.69
7018;BME280;3549;42.162;24.726;2023-09-19T07:03:22;47572.91;;;-141.97;60.58
7018;BME280;3549;42.162;24.726;2023-09-19T07:05:51;47463.34;;;-141.97;59.22
7018;BME280;3549;42.162;24.726;2023-09-19T07:08:18;47553.69;;;-141.97;57.96
7018;BME280;3549;42.162;24.726;2023-09-19T07:10:45;47546.00;;;-141.97;58.65
7018;BME280;3549;42.162;24.726;2023-09-19T07:13:14;47526.75;;;-141.97;58.73
7018;BME280;3549;42.162;24.726;2023-09-19T07:15:42;47557.53;;;-141.97;58.05
7018;BME280;3549;42.162;24.726;2023-09-19T07:18:17;47536.38;;;-141.97;58.51
7018;BME280;3549;42.162;24.726;2023-09-19T07:20:44;47530.59;;;-141.97;58.47
7018;BME280;3549;42.162;24.726;2023-09-19T07:23:20;47521.00;;;-141.97;56.71
7018;BME280;3549;42.162;24.726;2023-09-19T07:25:47;47472.94;;;-141.97;55.78
7018;BME280;3549;42.162;24.726;2023-09-19T07:28:14;47559.44;;;-141.97;54.81
7018;BME280;3549;42.162;24.726;2023-09-19T07:30:39;47549.84;;;-141.97;53.19
7018;BME280;3549;42.162;24.726;2023-09-19T07:33:07;47501.78;;;-141.97;51.76
7018;BME280;3549;42.162;24.726;2023-09-19T07:35:32;47426.81;;;-141.97;51.36
7018;BME280;3549;42.162;24.726;2023-09-19T07:37:58;47513.31;;;-141.97;51.17
7018;BME280;3549;42.162;24.726;2023-09-19T07:40:27;47503.69;;;-141.97;50.38
7018;BME280;3549;42.162;24.726;2023-09-19T07:42:56;47453.72;;;-141.97;49.08
7018;BME280;3549;42.162;24.726;2023-09-19T07:45:22;47472.94;;;-141.97;48.55
7018;BME280;3549;42.162;24.726;2023-09-19T07:47:50;47492.16;;;-141.97;48.02
7018;BME280;3549;42.162;24.726;2023-09-19T07:50:16;47494.09;;;-141.97;47.28
7018;BME280;3549;42.162;24.726;2023-09-19T07:52:44;47488.31;;;-141.97;47.35
7018;BME280;3549;42.162;24.726;2023-09-19T07:55:10;47688.22;;;-141.97;46.56
7018;BME280;3549;42.162;24.726;2023-09-19T07:57:42;47453.72;;;-141.97;46.29
7018;BME280;3549;42.162;24.726;2023-09-19T08:00:09;47482.56;;;-141.97;46.20
7018;BME280;3549;42.162;24.726;2023-09-19T08:02:38;47492.16;;;-141.97;45.55
7018;BME280;3549;42.162;24.726;2023-09-19T08:05:05;47480.63;;;-141.97;44.51
7018;BME280;3549;42.162;24.726;2023-09-19T08:07:40;47446.03;;;-141.97;43.94
7018;BME280;3549;42.162;24.726;2023-09-19T08:10:06;47499.84;;;-141.97;44.71
7018;BME280;3549;42.162;24.726;2023-09-19T08:12:42;47449.88;;;-141.97;45.52
7018;BME280;3549;42.162;24.726;2023-09-19T08:15:13;47488.31;;;-141.97;45.65
7018;BME280;3549;42.162;24.726;2023-09-19T08:17:38;47472.94;;;-141.97;44.18
7018;BME280;3549;42.162;24.726;2023-09-19T08:20:04;47444.13;;;-141.97;43.07
7018;BME280;3549;42.162;24.726;2023-09-19T08:22:30;47421.06;;;-141.97;41.79
7018;BME280;3549;42.162;24.726;2023-09-19T08:24:57;47451.81;;;-141.97;41.30
7018;BME280;3549;42.162;24.726;2023-09-19T08:27:23;47447.97;;;-141.97;41.91
7018;BME280;3549;42.162;24.726;2023-09-19T08:29:52;47449.88;;;-141.97;41.89
7018;BME280;3549;42.162;24.726;2023-09-19T08:32:17;47459.50;;;-141.97;43.13
7018;BME280;3549;42.162;24.726;2023-09-19T08:34:45;47599.81;;;-141.97;42.46
7018;BME280;3549;42.162;24.726;2023-09-19T08:37:10;47432.59;;;-141.97;42.72
7018;BME280;3549;42.162;24.726;2023-09-19T08:39:35;47476.78;;;-141.97;42.51
7018;BME280;3549;42.162;24.726;2023-09-19T08:42:02;47442.19;;;-141.97;41.09
7018;BME280;3549;42.162;24.726;2023-09-19T08:44:28;47471.03;;;-141.97;40.58
7018;BME280;3549;42.162;24.726;2023-09-19T08:47:09;47359.56;;;-141.97;40.06
7018;BME280;3549;42.162;24.726;2023-09-19T08:50:01;47669.00;;;-141.97;40.46
7018;BME280;3549;42.162;24.726;2023-09-19T08:52:48;47424.91;;;-141.97;40.23
7018;BME280;3549;42.162;24.726;2023-09-19T08:55:17;47401.84;;;-141.97;40.66
7018;BME280;3549;42.162;24.726;2023-09-19T08:57:49;47457.56;;;-141.97;40.73
7018;BME280;3549;42.162;24.726;2023-09-19T09:00:15;47436.44;;;-141.97;40.08
7018;BME280;3549;42.162;24.726;2023-09-19T09:02:46;47467.19;;;-141.97;39.24
7018;BME280;3549;42.162;24.726;2023-09-19T09:05:12;47428.75;;;-141.97;38.32
7018;BME280;3549;42.162;24.726;2023-09-19T09:07:40;47378.78;;;-141.97;38.40
7018;BME280;3549;42.162;24.726;2023-09-19T09:10:06;47501.78;;;-141.97;38.13
7018;BME280;3549;42.162;24.726;2023-09-19T09:12:34;47421.06;;;-141.97;38.34
7018;BME280;3549;42.162;24.726;2023-09-19T09:15:03;47449.88;;;-141.97;38.68
7018;BME280;3549;42.162;24.726;2023-09-19T09:17:29;47607.50;;;-141.97;38.61
7018;BME280;3549;42.162;24.726;2023-09-19T09:19:55;47369.16;;;-141.97;38.00
7018;BME280;3549;42.162;24.726;2023-09-19T09:22:21;47419.13;;;-141.97;37.50
7018;BME280;3549;42.162;24.726;2023-09-19T09:24:58;47407.59;;;-141.97;37.31
7018;BME280;3549;42.162;24.726;2023-09-19T09:27:24;47411.44;;;-141.97;37.84
7018;BME280;3549;42.162;24.726;2023-09-19T09:29:51;47311.50;;;-141.97;38.05
7018;BME280;3549;42.162;24.726;2023-09-19T09:32:23;47438.34;;;-141.97;37.33
7018;BME280;3549;42.162;24.726;2023-09-19T09:34:52;47442.19;;;-141.97;36.91
7018;BME280;3549;42.162;24.726;2023-09-19T09:37:18;47417.22;;;-141.97;36.41
7018;BME280;3549;42.162;24.726;2023-09-19T09:39:50;47398.00;;;-141.97;36.49
7018;BME280;3549;42.162;24.726;2023-09-19T09:42:34;47405.69;;;-141.97;36.07
7018;BME280;3549;42.162;24.726;2023-09-19T09:45:20;47392.22;;;-141.97;36.38
7018;BME280;3549;42.162;24.726;2023-09-19T09:47:58;47442.19;;;-141.97;37.26
7018;BME280;3549;42.162;24.726;2023-09-19T09:58:22;47424.91;;;-141.97;37.57
7018;BME280;3549;42.162;24.726;2023-09-19T10:00:55;47467.19;;;-141.97;38.61
7018;BME280;3549;42.162;24.726;2023-09-19T10:03:33;47438.34;;;-141.97;38.48
7018;BME280;3549;42.162;24.726;2023-09-19T10:06:00;47438.34;;;-141.97;38.49
7018;BME280;3549;42.162;24.726;2023-09-19T10:08:34;47430.66;;;-141.97;38.19
7018;BME280;3549;42.162;24.726;2023-09-19T10:11:01;47430.66;;;-141.97;37.67
7018;BME280;3549;42.162;24.726;2023-09-19T10:13:35;47444.13;;;-141.97;36.91
7018;BME280;3549;42.162;24.726;2023-09-19T10:16:06;47432.59;;;-141.97;36.59
7018;BME280;3549;42.162;24.726;2023-09-19T10:18:36;47680.53;;;-141.97;36.15
7018;BME280;3549;42.162;24.726;2023-09-19T10:21:04;47384.53;;;-141.97;35.24
7018;BME280;3549;42.162;24.726;2023-09-19T10:23:32;47388.38;;;-141.97;35.60
7018;BME280;3549;42.162;24.726;2023-09-19T10:26:01;47323.03;;;-141.97;35.91
7018;BME280;3549;42.162;24.726;2023-09-19T10:28:28;47388.38;;;-141.97;35.80
7018;BME280;3549;42.162;24.726;2023-09-19T10:30:54;47376.84;;;-141.97;36.35
7018;BME280;3549;42.162;24.726;2023-09-19T10:33:23;47647.84;;;-141.97;35.88
7018;BME280;3549;42.162;24.726;2023-09-19T10:35:53;47163.53;;;-141.97;35.39
7018;BME280;3549;42.162;24.726;2023-09-19T10:38:26;47357.63;;;-141.97;34.95
7018;BME280;3549;42.162;24.726;2023-09-19T10:40:54;47411.44;;;-141.97;35.19
7018;BME280;3549;42.162;24.726;2023-09-19T10:43:26;47390.31;;;-141.97;35.13
7018;BME280;3549;42.162;24.726;2023-09-19T10:45:58;47388.38;;;-141.97;34.53
7018;BME280;3549;42.162;24.726;2023-09-19T10:48:25;47411.44;;;-141.97;34.71
7018;BME280;3549;42.162;24.726;2023-09-19T10:50:57;47519.06;;;-141.97;34.98
7018;BME280;3549;42.162;24.726;2023-09-19T10:53:39;47376.84;;;-141.97;34.83
7018;BME280;3549;42.162;24.726;2023-09-19T10:56:06;47392.22;;;-141.97;35.55
7018;BME280;3549;42.162;24.726;2023-09-19T10:58:35;47342.25;;;-141.97;35.20
7018;BME280;3549;42.162;24.726;2023-09-19T11:01:04;47455.66;;;-141.97;34.82
7018;BME280;3549;42.162;24.726;2023-09-19T11:03:44;47409.53;;;-141.97;34.72
7018;BME280;3549;42.162;24.726;2023-09-19T11:06:14;47436.44;;;-141.97;35.32
7018;BME280;3549;42.162;24.726;2023-09-19T11:11:47;47407.59;;;-141.97;34.42
7018;BME280;3549;42.162;24.726;2023-09-19T11:25:43;47378.78;;;-141.97;33.96
7018;BME280;3549;42.162;24.726;2023-09-19T11:30:51;47338.41;;;-141.97;34.39
7018;BME280;3549;42.162;24.726;2023-09-19T11:36:04;47378.78;;;-141.97;33.31
7018;BME280;3549;42.162;24.726;2023-09-19T11:43:50;47503.69;;;-141.97;33.91
7018;BME280;3549;42.162;24.726;2023-09-19T11:46:16;47384.53;;;-141.97;33.88
7018;BME280;3549;42.162;24.726;2023-09-19T11:48:47;47403.75;;;-141.97;33.76
7018;BME280;3549;42.162;24.726;2023-09-19T11:51:18;47324.97;;;-141.97;34.08
7018;BME280;3549;42.162;24.726;2023-09-19T11:53:48;47326.88;;;-141.97;34.24
7018;BME280;3549;42.162;24.726;2023-09-19T11:56:18;47409.53;;;-141.97;34.27
7018;BME280;3549;42.162;24.726;2023-09-19T11:58:45;47401.84;;;-141.97;33.35
7018;BME280;3549;42.162;24.726;2023-09-19T12:01:14;47409.53;;;-141.97;33.72
7018;BME280;3549;42.162;24.726;2023-09-19T12:03:46;47392.22;;;-141.97;33.38
7018;BME280;3549;42.162;24.726;2023-09-19T12:06:14;47484.47;;;-141.97;32.74
7018;BME280;3549;42.162;24.726;2023-09-19T12:08:41;47344.19;;;-141.97;32.48
7018;BME280;3549;42.162;24.726;2023-09-19T12:11:14;47342.25;;;-141.97;31.84
7018;BME280;3549;42.162;24.726;2023-09-19T12:13:47;47323.03;;;-141.97;32.36
7018;BME280;3549;42.162;24.726;2023-09-19T12:16:19;47351.88;;;-141.97;32.17
7018;BME280;3549;42.162;24.726;2023-09-19T12:18:47;47349.94;;;-141.97;32.33
7018;BME280;3549;42.162;24.726;2023-09-19T12:21:30;47371.09;;;-141.97;33.52
7018;BME280;3549;42.162;24.726;2023-09-19T12:24:11;47338.41;;;-141.97;32.98
7018;BME280;3549;42.162;24.726;2023-09-19T12:26:45;47342.25;;;-141.97;32.48
7018;BME280;3549;42.162;24.726;2023-09-19T12:29:16;47382.63;;;-141.97;32.61
7018;BME280;3549;42.162;24.726;2023-09-19T12:31:55;47348.03;;;-141.97;32.19
7018;BME280;3549;42.162;24.726;2023-09-19T12:34:32;47307.66;;;-141.97;30.98
7018;BME280;3549;42.162;24.726;2023-09-19T12:40:03;47282.69;;;-141.97;31.58
7018;BME280;3549;42.162;24.726;2023-09-19T12:42:40;47311.50;;;-141.97;31.04
7018;BME280;3549;42.162;24.726;2023-09-19T12:45:07;47303.81;;;-141.97;30.17
7018;BME280;3549;42.162;24.726;2023-09-19T12:47:34;47221.19;;;-141.97;29.76
7018;BME280;3549;42.162;24.726;2023-09-19T12:50:06;47296.13;;;-141.97;29.70
7018;BME280;3549;42.162;24.726;2023-09-19T12:52:36;47542.16;;;-141.97;29.40
7018;BME280;3549;42.162;24.726;2023-09-19T12:55:02;47303.81;;;-141.97;28.90
7018;BME280;3549;42.162;24.726;2023-09-19T12:57:28;47276.91;;;-141.97;28.95
7018;BME280;3549;42.162;24.726;2023-09-19T12:59:54;47188.50;;;-141.97;29.56
7018;BME280;3549;42.162;24.726;2023-09-19T13:02:20;47321.13;;;-141.97;29.40
7018;BME280;3549;42.162;24.726;2023-09-19T13:04:53;47311.50;;;-141.97;29.18
7018;BME280;3549;42.162;24.726;2023-09-19T13:07:44;47361.47;;;-141.97;30.37
7018;BME280;3549;42.162;24.726;2023-09-19T13:10:11;47369.16;;;-141.97;30.83
7018;BME280;3549;42.162;24.726;2023-09-19T13:12:40;47338.41;;;-141.97;31.86
7018;BME280;3549;42.162;24.726;2023-09-19T13:15:11;47376.84;;;-141.97;31.71
7018;BME280;3549;42.162;24.726;2023-09-19T13:17:47;47534.44;;;-141.97;30.54
7018;BME280;3549;42.162;24.726;2023-09-19T13:20:26;47284.59;;;-141.97;29.21
7018;BME280;3549;42.162;24.726;2023-09-19T13:22:57;47319.19;;;-141.97;28.52
7018;BME280;3549;42.162;24.726;2023-09-19T13:25:33;47069.34;;;-141.97;28.05
7018;BME280;3549;42.162;24.726;2023-09-19T13:28:00;47242.31;;;-141.97;27.60
7018;BME280;3549;42.162;24.726;2023-09-19T13:30:29;47465.25;;;-141.97;27.80
7018;BME280;3549;42.162;24.726;2023-09-19T13:33:10;47225.03;;;-141.97;27.09
7018;BME280;3549;42.162;24.726;2023-09-19T13:35:36;47411.44;;;-141.97;26.18
7018;BME280;3549;42.162;24.726;2023-09-19T13:38:03;47192.34;;;-141.97;26.00
7018;BME280;3549;42.162;24.726;2023-09-19T13:40:29;47173.13;;;-141.97;26.01
7018;BME280;3549;42.162;24.726;2023-09-19T13:42:56;47209.66;;;-141.97;26.67
7018;BME280;3549;42.162;24.726;2023-09-19T13:45:21;47021.31;;;-141.97;26.62
7018;BME280;3549;42.162;24.726;2023-09-19T13:47:49;47215.41;;;-141.97;26.90